createdAt,value
2018-11-05T00:01:00.802Z,31.90
2018-11-05T00:03:28.361Z,33.60
2018-11-05T00:05:55.983Z,31.13
2018-11-05T00:08:23.634Z,30.77
2018-11-05T00:10:57.446Z,33.57
2018-11-05T00:13:25.326Z,32.50
2018-11-05T00:15:52.903Z,34.60
2018-11-05T00:18:20.480Z,31.30
2018-11-05T00:20:48.037Z,32.67
2018-11-05T00:23:15.851Z,30.00
2018-11-05T00:25:43.399Z,32.53
2018-11-05T00:28:10.939Z,32.93
2018-11-05T00:30:38.604Z,31.90
2018-11-05T00:33:06.561Z,33.70
2018-11-05T00:35:34.184Z,29.97
2018-11-05T00:38:01.795Z,33.47
2018-11-05T00:40:29.340Z,29.53
2018-11-05T00:42:56.902Z,31.47
2018-11-05T00:45:24.575Z,29.33
2018-11-05T00:47:52.424Z,28.90
2018-11-05T00:50:19.966Z,31.87
2018-11-05T00:52:47.684Z,34.87
2018-11-05T00:55:15.423Z,30.00
2018-11-05T00:57:42.991Z,29.87
2018-11-05T01:00:13.263Z,33.33
2018-11-05T01:02:41.415Z,35.10
2018-11-05T01:05:10.711Z,30.07
2018-11-05T01:07:38.732Z,32.53
2018-11-05T01:10:07.108Z,32.53
2018-11-05T01:12:35.039Z,30.30
2018-11-05T01:15:02.868Z,29.90
2018-11-05T01:17:30.592Z,31.43
2018-11-05T01:19:58.296Z,31.47
2018-11-05T01:22:25.931Z,33.47
2018-11-05T01:24:53.460Z,34.17
2018-11-05T01:27:21.338Z,32.27
2018-11-05T01:29:48.947Z,32.07
2018-11-05T01:32:16.534Z,32.90
2018-11-05T01:34:44.158Z,33.80
2018-11-05T01:37:11.813Z,33.17
2018-11-05T01:39:39.357Z,33.83
2018-11-05T01:42:07.088Z,33.40
2018-11-05T01:44:34.622Z,32.50
2018-11-05T01:47:02.658Z,32.70
2018-11-05T01:49:30.302Z,34.17
2018-11-05T01:51:57.983Z,33.40
2018-11-05T01:54:25.522Z,30.00
2018-11-05T01:56:53.359Z,33.27
2018-11-05T01:59:21.176Z,35.13
2018-11-05T02:01:48.695Z,35.43
2018-11-05T02:04:16.382Z,34.10
2018-11-05T02:06:43.897Z,32.87
2018-11-05T02:09:11.681Z,35.47
2018-11-05T02:11:39.473Z,36.33
2018-11-05T02:14:07.021Z,34.10
2018-11-05T02:16:35.015Z,35.87
2018-11-05T02:19:02.594Z,37.43
2018-11-05T02:21:30.223Z,35.47
2018-11-05T02:23:57.920Z,32.70
2018-11-05T02:26:25.583Z,35.80
2018-11-05T02:28:53.345Z,34.13
2018-11-05T02:31:21.161Z,32.27
2018-11-05T02:33:48.679Z,36.67
2018-11-05T02:36:16.316Z,33.83
2018-11-05T02:38:43.887Z,34.20
2018-11-05T02:41:11.671Z,35.40
2018-11-05T02:43:39.302Z,33.70
2018-11-05T02:46:06.990Z,35.30
2018-11-05T02:48:34.615Z,33.93
2018-11-05T02:51:02.123Z,34.17
2018-11-05T02:53:30.034Z,38.07
2018-11-05T02:55:57.786Z,35.07
2018-11-05T02:58:27.102Z,34.90
2018-11-05T03:00:55.939Z,35.17
2018-11-05T03:03:23.663Z,35.37
2018-11-05T03:05:51.268Z,34.97
2018-11-05T03:08:18.900Z,36.77
2018-11-05T03:10:46.455Z,35.03
2018-11-05T03:13:14.171Z,37.97
2018-11-05T03:15:41.737Z,37.67
2018-11-05T03:18:09.291Z,37.27
2018-11-05T03:20:36.954Z,36.50
2018-11-05T03:23:05.001Z,31.80
2018-11-05T03:25:32.526Z,33.90
2018-11-05T03:28:00.372Z,32.57
2018-11-05T03:30:27.979Z,32.00
2018-11-05T03:32:55.568Z,31.77
2018-11-05T03:35:23.354Z,30.23
2018-11-05T03:37:50.942Z,30.50
2018-11-05T03:40:18.463Z,30.33
2018-11-05T03:42:46.038Z,28.17
2018-11-05T03:45:14.666Z,31.20
2018-11-05T03:47:42.498Z,30.17
2018-11-05T03:50:12.691Z,30.70
2018-11-05T03:52:40.788Z,29.03
2018-11-05T03:55:08.820Z,28.70
2018-11-05T03:57:36.651Z,30.60
2018-11-05T04:00:05.333Z,30.83
2018-11-05T04:02:33.183Z,30.43
2018-11-05T04:05:00.812Z,29.00
2018-11-05T04:07:28.557Z,26.83
2018-11-05T04:09:56.213Z,30.77
2018-11-05T04:12:23.816Z,29.97
2018-11-05T04:14:51.584Z,29.93
2018-11-05T04:17:19.427Z,33.07
2018-11-05T04:19:47.067Z,32.10
2018-11-05T04:22:14.616Z,29.03
2018-11-05T04:24:42.199Z,30.63
2018-11-05T04:27:09.951Z,30.60
2018-11-05T04:29:37.534Z,29.20
2018-11-05T04:32:05.106Z,29.33
2018-11-05T04:34:32.731Z,28.97
2018-11-05T04:37:00.279Z,30.03
2018-11-05T04:39:27.806Z,28.97
2018-11-05T04:41:55.344Z,31.10
2018-11-05T04:44:22.950Z,28.60
2018-11-05T04:46:50.707Z,28.97
2018-11-05T04:49:18.445Z,27.80
2018-11-05T04:51:45.988Z,28.83
2018-11-05T04:54:13.495Z,29.47
2018-11-05T04:56:41.065Z,30.43
2018-11-05T04:59:08.590Z,30.90
2018-11-05T05:01:36.182Z,28.40
2018-11-05T05:04:03.836Z,29.83
2018-11-05T05:06:31.411Z,32.33
2018-11-05T05:08:58.927Z,31.20
2018-11-05T05:11:26.487Z,31.70
2018-11-05T05:13:54.088Z,29.30
2018-11-05T05:16:21.969Z,32.53
2018-11-05T05:18:49.774Z,30.43
2018-11-05T05:21:17.307Z,30.37
2018-11-05T05:23:44.878Z,27.60
2018-11-05T05:26:12.451Z,27.67
2018-11-05T05:28:40.091Z,28.97
2018-11-05T05:31:07.838Z,30.00
2018-11-05T05:33:35.819Z,29.27
2018-11-05T05:36:03.753Z,27.90
2018-11-05T05:38:31.747Z,28.23
2018-11-05T05:40:59.501Z,32.10
2018-11-05T05:43:26.940Z,30.23
2018-11-05T05:45:54.651Z,31.13
2018-11-05T05:48:22.278Z,30.60
2018-11-05T05:50:49.881Z,29.53
2018-11-05T05:53:17.464Z,30.70
2018-11-05T05:55:45.827Z,32.50
2018-11-05T05:58:13.359Z,31.93
2018-11-05T06:00:41.060Z,33.77
2018-11-05T06:03:08.807Z,33.60
2018-11-05T06:05:36.716Z,32.43
2018-11-05T06:08:04.880Z,33.23
2018-11-05T06:10:32.641Z,30.10
2018-11-05T06:13:00.176Z,35.07
2018-11-05T06:15:27.993Z,36.50
2018-11-05T06:17:55.535Z,37.97
2018-11-05T06:20:34.577Z,34.30
2018-11-05T06:23:17.754Z,35.90
2018-11-05T06:25:45.348Z,34.77
2018-11-05T06:28:12.939Z,36.87
2018-11-05T06:30:40.844Z,38.70
2018-11-05T06:33:08.406Z,36.47
2018-11-05T06:35:35.938Z,40.17
2018-11-05T06:38:03.500Z,36.87
2018-11-05T06:40:31.043Z,37.10
2018-11-05T06:42:58.588Z,40.90
2018-11-05T06:45:26.205Z,39.37
2018-11-05T06:47:53.679Z,37.60
2018-11-05T06:50:22.855Z,38.77
2018-11-05T06:52:53.319Z,40.47
2018-11-05T06:55:21.165Z,39.40
2018-11-05T06:57:48.741Z,39.13
2018-11-05T07:00:21.987Z,41.50
2018-11-05T07:02:49.552Z,41.03
2018-11-05T07:05:17.176Z,39.73
2018-11-05T07:07:44.937Z,39.50
2018-11-05T07:10:13.462Z,39.47
2018-11-05T07:12:41.548Z,41.83
2018-11-05T07:15:10.940Z,39.70
2018-11-05T07:17:38.784Z,44.40
2018-11-05T07:20:08.780Z,38.50
2018-11-05T07:22:36.411Z,38.97
2018-11-05T07:25:05.011Z,39.80
2018-11-05T07:27:32.655Z,37.10
2018-11-05T07:30:00.138Z,36.93
2018-11-05T07:32:27.727Z,36.43
2018-11-05T07:34:55.411Z,38.23
2018-11-05T07:37:22.995Z,38.00
2018-11-05T07:39:50.538Z,40.83
2018-11-05T07:42:18.200Z,37.07
2018-11-05T07:44:46.095Z,37.40
2018-11-05T07:47:13.739Z,38.03
2018-11-05T07:49:41.267Z,38.47
2018-11-05T07:52:09.016Z,45.40
2018-11-05T07:54:36.579Z,40.77
2018-11-05T07:57:04.318Z,38.47
2018-11-05T07:59:32.006Z,41.00
2018-11-05T08:01:59.784Z,37.40
2018-11-05T08:04:27.349Z,39.20
2018-11-05T08:06:54.886Z,38.90
2018-11-05T08:09:22.383Z,36.83
2018-11-05T08:11:49.909Z,41.17
2018-11-05T08:14:17.517Z,38.50
2018-11-05T08:16:44.998Z,36.00
2018-11-05T08:19:12.559Z,41.33
2018-11-05T08:21:40.326Z,38.13
2018-11-05T08:24:07.883Z,37.93
2018-11-05T08:26:35.450Z,39.47
2018-11-05T08:29:03.104Z,39.63
2018-11-05T08:31:30.876Z,38.70
2018-11-05T08:33:58.565Z,37.37
2018-11-05T08:36:26.212Z,40.07
2018-11-05T08:38:53.750Z,38.37
2018-11-05T08:41:21.439Z,37.67
2018-11-05T08:43:49.058Z,40.70
2018-11-05T08:46:16.747Z,39.00
2018-11-05T08:48:44.350Z,42.07
2018-11-05T08:51:12.411Z,42.20
2018-11-05T08:53:40.203Z,43.47
2018-11-05T08:56:08.017Z,38.67
2018-11-05T08:58:35.610Z,39.83
2018-11-05T09:01:09.355Z,38.40
2018-11-05T09:03:36.910Z,38.40
2018-11-05T09:06:04.710Z,36.27
2018-11-05T09:08:32.466Z,38.33
2018-11-05T09:11:00.422Z,35.30
2018-11-05T09:13:27.651Z,36.10
2018-11-05T09:15:55.379Z,37.40
2018-11-05T09:18:23.025Z,38.80
2018-11-05T09:20:50.921Z,34.83
2018-11-05T09:23:18.423Z,38.40
2018-11-05T09:25:45.998Z,34.67
2018-11-05T09:28:13.764Z,39.47
2018-11-05T09:30:41.796Z,34.67
2018-11-05T09:33:09.505Z,38.40
2018-11-05T09:35:37.175Z,38.20
2018-11-05T09:38:05.446Z,35.30
2018-11-05T09:40:33.080Z,35.97
2018-11-05T09:43:00.719Z,36.00
2018-11-05T09:45:28.837Z,35.57
2018-11-05T09:47:56.755Z,35.47
2018-11-05T09:50:24.901Z,35.40
2018-11-05T09:52:52.527Z,37.80
2018-11-05T09:55:20.152Z,37.77
2018-11-05T09:57:47.681Z,37.30
2018-11-05T10:00:17.413Z,37.60
2018-11-05T10:02:50.858Z,41.33
2018-11-05T10:05:18.512Z,38.03
2018-11-05T10:07:46.207Z,37.13
2018-11-05T10:10:14.699Z,39.03
2018-11-05T10:12:42.513Z,37.23
2018-11-05T10:15:11.563Z,40.10
2018-11-05T10:17:39.639Z,38.17
2018-11-05T10:20:12.766Z,39.07
2018-11-05T10:22:47.210Z,36.20
2018-11-05T10:25:15.309Z,37.00
2018-11-05T10:27:42.796Z,37.53
2018-11-05T10:30:14.006Z,37.73
2018-11-05T10:32:42.092Z,35.40
2018-11-05T10:35:10.085Z,35.40
2018-11-05T10:37:37.886Z,37.63
2018-11-05T10:40:08.499Z,34.53
2018-11-05T10:42:36.151Z,34.23
2018-11-05T10:45:04.112Z,34.40
2018-11-05T10:47:31.702Z,35.97
2018-11-05T10:49:59.482Z,34.60
2018-11-05T10:52:27.167Z,38.37
2018-11-05T10:54:54.898Z,37.20
2018-11-05T10:57:22.603Z,36.00
2018-11-05T10:59:50.167Z,32.93
2018-11-05T11:02:23.506Z,34.23
2018-11-05T11:04:51.024Z,36.10
2018-11-05T11:07:18.699Z,31.87
2018-11-05T11:09:46.298Z,34.57
2018-11-05T11:12:13.910Z,33.93
2018-11-05T11:14:41.563Z,34.50
2018-11-05T11:17:09.257Z,34.47
2018-11-05T11:19:36.847Z,35.07
2018-11-05T11:22:04.555Z,33.80
2018-11-05T11:24:32.047Z,33.13
2018-11-05T11:26:59.631Z,33.80
2018-11-05T11:29:27.293Z,34.67
2018-11-05T11:31:54.807Z,35.07
2018-11-05T11:34:22.436Z,33.53
2018-11-05T11:36:50.167Z,33.77
2018-11-05T11:39:18.763Z,35.67
2018-11-05T11:41:46.326Z,35.97
2018-11-05T11:44:14.209Z,34.10
2018-11-05T11:46:41.617Z,33.00
2018-11-05T11:49:09.806Z,34.80
2018-11-05T11:51:37.370Z,33.27
2018-11-05T11:54:05.646Z,34.27
2018-11-05T11:56:33.256Z,37.00
2018-11-05T11:59:00.858Z,34.27
2018-11-05T12:01:28.654Z,32.10
2018-11-05T12:03:56.439Z,31.67
2018-11-05T12:06:24.244Z,33.23
2018-11-05T12:08:51.797Z,32.03
2018-11-05T12:11:19.363Z,39.20
2018-11-05T12:13:46.982Z,34.70
2018-11-05T12:16:14.530Z,35.30
2018-11-05T12:18:42.155Z,32.90
2018-11-05T12:21:09.752Z,34.17
2018-11-05T12:23:37.387Z,35.73
2018-11-05T12:26:05.465Z,34.57
2018-11-05T12:28:33.035Z,34.70
2018-11-05T12:31:00.638Z,34.50
2018-11-05T12:33:28.259Z,35.40
2018-11-05T12:35:55.884Z,36.40
2018-11-05T12:38:23.506Z,35.47
2018-11-05T12:40:51.103Z,36.00
2018-11-05T12:43:18.812Z,36.37
2018-11-05T12:45:46.455Z,36.57
2018-11-05T12:48:14.616Z,35.60
2018-11-05T12:50:42.298Z,37.27
2018-11-05T12:53:09.819Z,37.70
2018-11-05T12:55:37.472Z,37.70
2018-11-05T12:58:05.033Z,36.97
2018-11-05T13:00:32.812Z,33.80
2018-11-05T13:03:00.994Z,34.27
2018-11-05T13:05:29.805Z,35.63
2018-11-05T13:07:57.382Z,36.73
2018-11-05T13:10:25.187Z,39.53
2018-11-05T13:12:53.010Z,38.93
2018-11-05T13:15:20.689Z,35.30
2018-11-05T13:17:48.135Z,34.77
2018-11-05T13:20:19.927Z,34.87
2018-11-05T13:22:47.937Z,36.33
2018-11-05T13:25:15.429Z,33.70
2018-11-05T13:27:44.253Z,37.80
2018-11-05T13:30:12.570Z,35.90
2018-11-05T13:32:40.873Z,33.03
2018-11-05T13:35:10.363Z,34.63
2018-11-05T13:37:38.587Z,36.83
2018-11-05T13:40:07.554Z,36.43
2018-11-05T13:42:35.248Z,38.17
2018-11-05T13:45:02.994Z,35.60
2018-11-05T13:47:31.259Z,36.87
2018-11-05T13:49:58.417Z,36.77
2018-11-05T13:52:25.976Z,35.77
2018-11-05T13:54:53.993Z,38.20
2018-11-05T13:57:21.352Z,35.57
2018-11-05T13:59:48.967Z,36.40
2018-11-05T14:02:16.802Z,36.60
2018-11-05T14:04:44.606Z,38.57
2018-11-05T14:07:12.719Z,40.13
2018-11-05T14:09:40.397Z,34.60
2018-11-05T14:12:08.003Z,34.30
2018-11-05T14:14:35.552Z,34.00
2018-11-05T14:17:03.210Z,37.03
2018-11-05T14:19:31.108Z,36.23
2018-11-05T14:21:58.678Z,36.23
2018-11-05T14:24:26.192Z,37.30
2018-11-05T14:26:53.763Z,37.30
2018-11-05T14:29:21.776Z,35.17
2018-11-05T14:31:48.905Z,34.70
2018-11-05T14:34:31.534Z,35.97
2018-11-05T14:36:59.499Z,36.80
2018-11-05T14:39:26.879Z,36.20
2018-11-05T14:41:54.471Z,37.70
2018-11-05T15:30:56.525Z,31.90
2018-11-05T15:44:36.782Z,35.13
2018-11-05T15:47:04.443Z,36.20
2018-11-05T15:53:13.030Z,38.40
2018-11-05T15:55:40.688Z,38.63
2018-11-05T15:58:08.229Z,38.40
2018-11-05T16:00:35.850Z,39.67
2018-11-05T16:03:03.868Z,40.60
2018-11-05T16:05:31.531Z,36.10
2018-11-05T16:07:59.162Z,36.57
2018-11-05T16:10:26.715Z,39.27
2018-11-05T16:12:54.328Z,37.70
2018-11-05T16:15:21.866Z,37.13
2018-11-05T16:17:49.550Z,39.73
2018-11-05T16:20:19.440Z,37.00
2018-11-05T16:22:47.942Z,37.20
2018-11-05T16:25:15.459Z,39.83
2018-11-05T16:27:43.508Z,37.10
2018-11-05T16:30:12.958Z,39.03
2018-11-05T16:32:40.904Z,38.80
2018-11-05T16:35:08.690Z,39.27
2018-11-05T16:37:36.450Z,36.47
2018-11-05T16:40:05.561Z,36.00
2018-11-05T16:42:33.107Z,38.87
2018-11-05T16:45:04.708Z,35.40
2018-11-05T16:47:32.870Z,38.77
2018-11-05T16:50:00.561Z,38.80
2018-11-05T16:52:28.343Z,36.50
2018-11-05T16:54:55.870Z,37.60
2018-11-05T16:57:23.743Z,40.47
2018-11-05T16:59:51.287Z,38.80
2018-11-05T17:02:19.259Z,40.07
2018-11-05T17:04:46.957Z,39.10
2018-11-05T17:07:14.762Z,38.77
2018-11-05T17:09:42.595Z,39.60
2018-11-05T17:12:10.130Z,37.43
2018-11-05T17:14:37.971Z,37.93
2018-11-05T17:17:05.639Z,41.83
2018-11-05T17:19:33.370Z,40.50
2018-11-05T17:22:01.002Z,39.60
2018-11-05T17:24:29.110Z,42.77
2018-11-05T17:26:56.702Z,41.97
2018-11-05T17:29:24.253Z,39.80
2018-11-05T17:31:52.690Z,39.27
2018-11-05T17:34:20.827Z,38.97
2018-11-05T17:36:48.807Z,38.90
2018-11-05T17:39:16.315Z,37.33
2018-11-05T17:41:43.825Z,40.67
2018-11-05T17:44:12.436Z,40.50
2018-11-05T17:46:40.135Z,41.37
2018-11-05T17:49:10.300Z,41.10
2018-11-05T17:51:38.135Z,40.90
2018-11-05T17:54:06.022Z,40.73
2018-11-05T17:56:33.548Z,39.33
2018-11-05T17:59:01.379Z,42.00
2018-11-05T18:01:28.951Z,41.73
2018-11-05T18:03:56.528Z,42.47
2018-11-05T18:06:24.105Z,41.23
2018-11-05T18:08:51.914Z,42.07
2018-11-05T18:11:19.395Z,43.63
2018-11-05T18:13:46.995Z,38.83
2018-11-05T18:16:14.575Z,40.60
2018-11-05T18:18:42.334Z,39.30
2018-11-05T18:21:10.259Z,40.97
2018-11-05T18:23:38.378Z,43.30
2018-11-05T18:26:06.616Z,49.98
2018-11-05T18:28:34.185Z,49.40
2018-11-05T18:31:01.756Z,43.37
2018-11-05T18:33:29.354Z,44.33
2018-11-05T18:35:57.032Z,44.77
2018-11-05T18:38:24.942Z,43.67
2018-11-05T18:40:52.563Z,44.70
2018-11-05T18:43:20.079Z,44.37
2018-11-05T18:45:47.640Z,44.40
2018-11-05T18:48:15.333Z,47.43
2018-11-05T18:50:42.874Z,45.23
2018-11-05T18:53:10.480Z,44.53
2018-11-05T18:55:38.224Z,43.20
2018-11-05T18:58:06.699Z,46.90
2018-11-05T19:00:34.256Z,44.73
2018-11-05T19:03:01.868Z,44.87
2018-11-05T19:05:29.963Z,45.07
2018-11-05T19:07:57.648Z,46.60
2018-11-05T19:10:25.282Z,44.97
2018-11-05T19:12:53.389Z,48.30
2018-11-05T19:15:21.058Z,47.23
2018-11-05T19:17:49.225Z,47.90
2018-11-05T19:20:17.169Z,45.50
2018-11-05T19:22:45.353Z,48.57
2018-11-05T19:25:13.908Z,44.90
2018-11-05T19:27:42.023Z,43.33
2018-11-05T19:30:13.432Z,50.33
2018-11-05T19:32:41.069Z,45.73
2018-11-05T19:35:09.559Z,48.90
2018-11-05T19:37:37.298Z,49.17
2018-11-05T19:40:06.071Z,49.93
2018-11-05T19:42:33.810Z,48.80
2018-11-05T19:45:01.601Z,46.53
2018-11-05T19:47:29.225Z,48.17
2018-11-05T19:49:56.731Z,49.00
2018-11-05T19:52:24.385Z,48.90
2018-11-05T19:54:52.035Z,51.90
2018-11-05T19:57:19.708Z,50.30
2018-11-05T19:59:47.261Z,50.37
2018-11-05T20:02:15.018Z,46.60
2018-11-05T20:04:42.577Z,48.43
2018-11-05T20:07:10.163Z,51.00
2018-11-05T20:09:37.990Z,49.37
2018-11-05T20:12:06.100Z,48.50
2018-11-05T20:14:33.968Z,50.20
2018-11-05T20:17:01.866Z,47.10
2018-11-05T20:19:29.227Z,52.03
2018-11-05T20:21:56.942Z,49.97
2018-11-05T20:24:24.740Z,50.43
2018-11-05T20:26:52.325Z,46.57
2018-11-05T20:29:19.931Z,51.67
2018-11-05T20:31:47.623Z,51.43
2018-11-05T20:34:15.321Z,46.10
2018-11-05T20:36:42.558Z,50.60
2018-11-05T20:39:10.818Z,48.90
2018-11-05T20:41:38.559Z,52.20
2018-11-05T20:44:06.463Z,53.53
2018-11-05T20:46:34.162Z,52.87
2018-11-05T20:49:01.796Z,52.37
2018-11-05T20:51:29.668Z,51.10
2018-11-05T20:53:57.429Z,50.10
2018-11-05T20:56:25.083Z,51.20
2018-11-05T20:58:53.089Z,52.37
2018-11-05T21:01:20.682Z,50.60
2018-11-05T21:03:48.252Z,50.87
2018-11-05T21:06:16.123Z,52.43
2018-11-05T21:08:43.735Z,53.50
2018-11-05T21:11:11.264Z,54.87
2018-11-05T21:13:39.553Z,48.10
2018-11-05T21:16:07.294Z,50.67
2018-11-05T21:18:35.080Z,50.77
2018-11-05T21:21:02.756Z,54.10
2018-11-05T21:23:30.239Z,54.30
2018-11-05T21:25:57.799Z,54.83
2018-11-05T21:28:25.540Z,55.80
2018-11-05T21:30:55.966Z,57.30
2018-11-05T21:33:23.539Z,60.30
2018-11-05T21:35:51.099Z,56.40
2018-11-05T21:38:18.778Z,54.40
2018-11-05T21:40:46.689Z,56.90
2018-11-05T21:43:14.216Z,56.00
2018-11-05T21:45:41.924Z,57.20
2018-11-05T21:48:09.471Z,59.37
2018-11-05T21:50:37.288Z,56.93
2018-11-05T21:53:05.753Z,53.87
2018-11-05T21:55:33.573Z,54.00
2018-11-05T21:58:01.302Z,54.70
2018-11-05T22:00:28.955Z,56.17
2018-11-05T22:03:09.943Z,54.87
2018-11-05T22:05:37.473Z,59.53
2018-11-05T22:08:05.692Z,60.20
2018-11-05T22:10:33.643Z,57.00
2018-11-05T22:13:01.266Z,56.87
2018-11-05T22:15:34.476Z,56.60
2018-11-05T22:18:02.059Z,58.67
2018-11-05T22:20:29.619Z,57.20
2018-11-05T22:22:57.311Z,55.07
2018-11-05T22:25:27.803Z,58.77
2018-11-05T22:27:55.511Z,59.80
2018-11-05T22:30:23.046Z,59.30
2018-11-05T22:32:50.592Z,58.83
2018-11-05T22:35:18.156Z,59.17
2018-11-05T22:37:45.703Z,57.30
2018-11-05T22:40:14.022Z,54.10
2018-11-05T22:42:42.203Z,57.93
2018-11-05T22:45:11.780Z,58.90
2018-11-05T22:47:39.529Z,61.53
2018-11-05T22:50:07.709Z,58.57
2018-11-05T22:52:35.390Z,60.33
2018-11-05T22:55:03.271Z,63.10
2018-11-05T22:57:31.019Z,60.00
2018-11-05T22:59:58.574Z,57.53
2018-11-05T23:02:26.347Z,59.00
2018-11-05T23:04:53.998Z,55.00
2018-11-05T23:07:21.653Z,55.50
2018-11-05T23:09:49.168Z,58.20
2018-11-05T23:12:16.746Z,59.97
2018-11-05T23:14:44.471Z,59.50
2018-11-05T23:17:12.208Z,55.57
2018-11-05T23:19:39.771Z,65.07
2018-11-05T23:22:07.351Z,61.00
2018-11-05T23:24:35.585Z,58.00
2018-11-05T23:27:03.303Z,64.40
2018-11-05T23:29:31.308Z,56.30
2018-11-05T23:31:58.839Z,53.47
2018-11-05T23:34:26.478Z,56.10
2018-11-05T23:36:54.052Z,64.20
2018-11-05T23:39:21.659Z,59.33
2018-11-05T23:41:49.158Z,63.13
2018-11-05T23:44:16.765Z,62.77
2018-11-05T23:46:44.328Z,59.13
2018-11-05T23:49:12.026Z,62.73
2018-11-05T23:51:39.960Z,60.20
2018-11-05T23:54:07.475Z,66.93
2018-11-05T23:56:35.007Z,57.67
2018-11-05T23:59:02.582Z,59.10
